LDDU/DBV METAR and TAF weather

Enter ICAO airport designator
Station Type Date Time Source
LDDU METAR 2020/07/05 03:00 UTC NOAA

LDDU 050300Z 03017KT 340V110 CAVOK 25/14 Q1011 TEMPO 03020G30KT


Station Type Date Time Source
LDDU Decoded METAR 2020/07/05 03:00 UTC NOAA

Dubrovnik / Cilipi, Croatia (LDDU) 42-34N 018-16E 165M
Jul 04, 2020 - 11:00 PM EDT / 2020.07.05 0300 UTC
Wind: from the NNE (030 degrees) at 20 MPH (17 KT) (direction variable):0
Visibility: greater than 7 mile(s):0
Temperature: 77 F (25 C)
Dew Point: 57 F (14 C)
Relative Humidity: 50%
Pressure (altimeter): 29.85 in. Hg (1011 hPa)
ob: LDDU 050300Z 03017KT 340V110 CAVOK 25/14 Q1011 TEMPO 03020G30KT
cycle: 3

Station Type Date Time Source
LDDU TAF 2020/07/05 02:47 UTC NOAA

TAF
AMD LDDU 050241Z 0502/0600 02018KT CAVOK TX29/0512Z TN25/0502Z PROB30
TEMPO 0502/0507 02020G30KT
BECMG 0507/0509 22007KT PROB30
TEMPO 0511/0518 TSRA FEW040CB
BECMG 0512/0514 29009KT
BECMG 0518/0520 02012KT

Example: see airport list